createdAt,value
2018-02-27T00:01:51.743Z,92.60
2018-02-27T00:04:19.223Z,92.40
2018-02-27T00:06:46.723Z,92.20
2018-02-27T00:09:14.228Z,92.40
2018-02-27T00:11:41.717Z,92.30
2018-02-27T00:14:09.224Z,92.50
2018-02-27T00:16:36.691Z,92.70
2018-02-27T00:19:04.188Z,92.90
2018-02-27T00:21:32.437Z,92.90
2018-02-27T00:23:59.900Z,92.80
2018-02-27T00:26:27.378Z,92.80
2018-02-27T00:28:55.648Z,92.90
2018-02-27T00:31:23.119Z,92.80
2018-02-27T00:33:51.359Z,93.10
2018-02-27T00:36:19.644Z,93.30
2018-02-27T00:38:47.923Z,93.30
2018-02-27T00:41:16.161Z,93.50
2018-02-27T00:43:43.647Z,93.50
2018-02-27T00:46:11.101Z,93.50
2018-02-27T00:48:38.594Z,93.70
2018-02-27T00:51:06.834Z,94.00
2018-02-27T00:53:34.322Z,93.80
2018-02-27T00:56:02.576Z,93.80
2018-02-27T00:58:30.821Z,94.10
2018-02-27T01:00:58.293Z,93.70
2018-02-27T01:03:25.783Z,93.90
2018-02-27T01:05:54.042Z,94.10
2018-02-27T01:08:22.303Z,94.10
2018-02-27T01:10:49.798Z,94.10
2018-02-27T01:13:17.254Z,93.70
2018-02-27T01:15:45.522Z,94.00
2018-02-27T01:18:13.032Z,93.70
2018-02-27T01:20:40.518Z,93.80
2018-02-27T01:23:07.992Z,93.60
2018-02-27T01:25:36.248Z,93.70
2018-02-27T01:28:03.738Z,93.70
2018-02-27T01:30:31.219Z,93.50
2018-02-27T01:32:58.708Z,93.70
2018-02-27T01:35:26.180Z,93.60
2018-02-27T01:37:53.646Z,93.60
2018-02-27T01:40:21.130Z,93.50
2018-02-27T01:42:48.607Z,93.70
2018-02-27T01:45:16.081Z,93.60
2018-02-27T01:47:43.549Z,93.20
2018-02-27T01:50:11.040Z,93.30
2018-02-27T01:52:38.538Z,93.50
2018-02-27T01:55:06.003Z,93.40
2018-02-27T01:57:33.499Z,93.50
2018-02-27T02:00:00.980Z,93.70
2018-02-27T02:02:28.471Z,93.50
2018-02-27T02:04:55.961Z,93.10
2018-02-27T02:07:23.545Z,93.30
2018-02-27T02:09:51.024Z,93.40
2018-02-27T02:12:18.885Z,93.70
2018-02-27T02:14:46.338Z,93.90
2018-02-27T02:17:13.830Z,94.20
2018-02-27T02:19:41.298Z,94.40
2018-02-27T02:22:08.787Z,94.40
2018-02-27T02:24:36.260Z,94.20
2018-02-27T02:27:04.516Z,94.90
2018-02-27T02:29:32.000Z,94.50
2018-02-27T02:31:59.480Z,94.60
2018-02-27T02:34:26.973Z,94.40
2018-02-27T02:36:54.444Z,93.40
2018-02-27T02:39:21.919Z,93.50
2018-02-27T02:42:01.304Z,93.70
2018-02-27T02:44:28.787Z,92.00
2018-02-27T02:46:56.276Z,92.40
2018-02-27T02:49:24.508Z,91.70
2018-02-27T02:51:51.976Z,91.70
2018-02-27T02:54:19.457Z,91.80
2018-02-27T02:56:47.703Z,91.70
2018-02-27T02:59:15.178Z,91.60
2018-02-27T03:01:42.678Z,91.90
2018-02-27T03:04:10.428Z,92.40
2018-02-27T03:06:37.891Z,92.30
2018-02-27T03:09:05.361Z,91.70
2018-02-27T03:11:32.870Z,92.10
2018-02-27T03:14:00.340Z,92.40
2018-02-27T03:16:28.599Z,92.60
2018-02-27T03:18:56.081Z,92.50
2018-02-27T03:21:24.331Z,92.60
2018-02-27T03:23:51.809Z,92.40
2018-02-27T03:26:19.270Z,92.60
2018-02-27T03:28:46.752Z,92.20
2018-02-27T03:31:14.222Z,91.70
2018-02-27T03:33:41.697Z,91.30
2018-02-27T03:36:09.573Z,90.70
2018-02-27T03:38:37.055Z,90.90
2018-02-27T03:41:04.561Z,91.10
2018-02-27T03:43:32.047Z,91.20
2018-02-27T03:45:59.530Z,91.10
2018-02-27T03:48:27.046Z,90.90
2018-02-27T03:50:54.527Z,90.30
2018-02-27T03:53:21.998Z,90.50
2018-02-27T03:55:50.259Z,89.60
2018-02-27T03:58:17.734Z,89.50
2018-02-27T04:00:45.979Z,90.00
2018-02-27T04:03:13.455Z,89.80
2018-02-27T04:05:40.969Z,90.00
2018-02-27T04:08:08.454Z,90.20
2018-02-27T04:10:35.952Z,89.40
2018-02-27T04:13:03.428Z,88.20
2018-02-27T04:15:30.923Z,86.80
2018-02-27T04:17:58.400Z,87.00
2018-02-27T04:20:27.166Z,86.80
2018-02-27T04:22:54.638Z,85.70
2018-02-27T04:25:22.170Z,85.70
2018-02-27T04:27:49.647Z,84.90
2018-02-27T04:30:17.137Z,85.30
2018-02-27T04:32:44.627Z,85.70
2018-02-27T04:35:12.947Z,85.30
2018-02-27T04:37:40.427Z,85.00
2018-02-27T04:40:07.905Z,85.70
2018-02-27T04:42:35.383Z,84.30
2018-02-27T04:45:02.869Z,84.70
2018-02-27T04:47:30.344Z,84.30
2018-02-27T04:49:58.601Z,84.40
2018-02-27T04:52:26.074Z,84.20
2018-02-27T04:54:54.316Z,84.60
2018-02-27T04:57:21.809Z,84.60
2018-02-27T04:59:50.102Z,85.30
2018-02-27T05:02:17.582Z,85.20
2018-02-27T05:04:45.073Z,85.50
2018-02-27T05:07:12.576Z,85.80
2018-02-27T05:09:40.043Z,86.20
2018-02-27T05:12:07.513Z,86.50
2018-02-27T05:14:35.036Z,86.30
2018-02-27T05:17:03.285Z,86.90
2018-02-27T05:19:30.775Z,86.10
2018-02-27T05:21:59.037Z,87.10
2018-02-27T05:24:27.302Z,87.10
2018-02-27T05:26:54.799Z,87.10
2018-02-27T05:29:22.312Z,87.00
2018-02-27T05:31:49.791Z,86.30
2018-02-27T05:34:17.259Z,86.70
2018-02-27T05:36:44.975Z,86.50
2018-02-27T05:39:12.456Z,87.00
2018-02-27T05:41:39.946Z,86.90
2018-02-27T05:44:07.436Z,87.20
2018-02-27T05:46:34.933Z,87.90
2018-02-27T05:49:02.461Z,88.00
2018-02-27T05:51:30.011Z,88.00
2018-02-27T05:53:58.543Z,88.20
2018-02-27T05:56:27.860Z,87.80
2018-02-27T05:58:55.652Z,87.70
2018-02-27T06:01:24.089Z,87.40
2018-02-27T06:03:51.730Z,87.90
2018-02-27T06:06:20.163Z,88.50
2018-02-27T06:08:49.154Z,88.20
2018-02-27T06:11:19.851Z,88.10
2018-02-27T06:13:47.413Z,88.40
2018-02-27T06:16:16.068Z,88.30
2018-02-27T06:18:44.223Z,88.30
2018-02-27T06:21:13.796Z,88.40
2018-02-27T06:23:41.360Z,88.80
2018-02-27T06:26:08.874Z,88.60
2018-02-27T06:28:36.395Z,87.70
2018-02-27T06:31:04.666Z,88.60
2018-02-27T06:33:32.237Z,88.40
2018-02-27T06:35:59.703Z,88.40
2018-02-27T06:38:27.251Z,87.90
2018-02-27T06:40:54.842Z,87.70
2018-02-27T06:43:22.347Z,87.60
2018-02-27T06:45:49.908Z,87.70
2018-02-27T06:48:17.445Z,87.30
2018-02-27T06:50:45.792Z,87.80
2018-02-27T06:53:13.284Z,86.20
2018-02-27T06:55:40.782Z,86.30
2018-02-27T06:58:08.292Z,85.80
2018-02-27T07:00:35.790Z,85.80
2018-02-27T07:03:03.328Z,85.50
2018-02-27T07:05:34.201Z,85.30
2018-02-27T07:08:02.086Z,85.70
2018-02-27T07:10:29.528Z,85.60
2018-02-27T07:12:57.042Z,85.00
2018-02-27T07:15:24.545Z,85.10
2018-02-27T07:17:52.018Z,85.60
2018-02-27T07:20:19.514Z,85.50
2018-02-27T07:22:47.012Z,85.00
2018-02-27T07:25:15.261Z,84.90
2018-02-27T07:27:42.758Z,85.10
2018-02-27T07:30:10.659Z,85.00
2018-02-27T07:32:38.143Z,85.10
2018-02-27T07:35:05.646Z,85.40
2018-02-27T07:37:33.164Z,84.60
2018-02-27T07:40:00.633Z,84.60
2018-02-27T07:42:28.161Z,84.70
2018-02-27T07:44:56.389Z,84.60
2018-02-27T07:47:23.857Z,84.30
2018-02-27T07:49:52.110Z,84.90
2018-02-27T07:52:19.582Z,84.50
2018-02-27T07:54:47.055Z,83.50
2018-02-27T07:57:14.545Z,82.10
2018-02-27T07:59:42.818Z,83.20
2018-02-27T08:02:10.285Z,81.20
2018-02-27T08:04:37.794Z,80.30
2018-02-27T08:07:06.032Z,80.90
2018-02-27T08:09:33.506Z,80.20
2018-02-27T08:12:00.986Z,80.70
2018-02-27T08:14:28.500Z,79.80
2018-02-27T08:16:55.986Z,79.50
2018-02-27T08:19:23.469Z,78.30
2018-02-27T08:21:51.764Z,79.40
2018-02-27T08:24:20.015Z,78.50
2018-02-27T08:26:48.280Z,78.40
2018-02-27T08:29:15.751Z,76.70
2018-02-27T08:31:43.215Z,76.90
2018-02-27T08:34:11.470Z,77.20
2018-02-27T08:36:38.938Z,76.30
2018-02-27T08:39:06.409Z,76.40
2018-02-27T08:41:34.695Z,76.70
2018-02-27T08:44:03.484Z,77.10
2018-02-27T08:46:30.974Z,76.80
2018-02-27T08:48:58.448Z,75.00
2018-02-27T08:51:25.907Z,74.40
2018-02-27T08:53:53.419Z,74.50
2018-02-27T08:56:20.909Z,75.00
2018-02-27T08:58:48.784Z,75.90
2018-02-27T09:01:16.326Z,75.70
2018-02-27T09:03:43.808Z,74.30
2018-02-27T09:06:11.571Z,73.70
2018-02-27T09:08:39.047Z,74.70
2018-02-27T09:11:06.521Z,74.50
2018-02-27T09:13:33.987Z,73.80
2018-02-27T09:16:01.466Z,73.90
2018-02-27T09:18:28.923Z,73.90
2018-02-27T09:20:56.446Z,74.30
2018-02-27T09:23:24.185Z,74.60
2018-02-27T09:25:51.677Z,72.50
2018-02-27T09:28:19.900Z,72.10
2018-02-27T09:30:47.438Z,70.00
2018-02-27T09:33:14.951Z,69.90
2018-02-27T09:35:42.445Z,70.60
2018-02-27T09:38:09.969Z,70.70
2018-02-27T09:40:37.469Z,71.10
2018-02-27T09:43:04.933Z,69.10
2018-02-27T09:45:32.415Z,67.60
2018-02-27T09:48:00.897Z,68.30
2018-02-27T09:50:28.659Z,63.70
2018-02-27T09:52:56.146Z,63.80
2018-02-27T09:55:25.287Z,64.00
2018-02-27T09:57:53.603Z,64.10
2018-02-27T10:00:21.110Z,64.00
2018-02-27T10:02:48.584Z,64.70
2018-02-27T10:05:16.070Z,63.10
2018-02-27T10:07:43.576Z,62.90
2018-02-27T10:10:11.045Z,65.10
2018-02-27T10:12:38.510Z,65.00
2018-02-27T10:15:06.700Z,63.40
2018-02-27T10:17:34.180Z,65.40
2018-02-27T10:20:01.643Z,66.20
2018-02-27T10:22:29.912Z,64.20
2018-02-27T10:24:57.391Z,63.80
2018-02-27T10:27:24.875Z,64.20
2018-02-27T10:29:52.349Z,64.80
2018-02-27T10:32:19.836Z,64.30
2018-02-27T10:34:47.309Z,64.70
2018-02-27T10:37:15.623Z,66.60
2018-02-27T10:39:43.092Z,61.50
2018-02-27T10:42:10.554Z,61.90
2018-02-27T10:44:38.044Z,62.20
2018-02-27T10:47:05.529Z,62.50
2018-02-27T10:49:33.763Z,60.20
2018-02-27T10:52:01.261Z,60.20
2018-02-27T10:54:28.742Z,61.50
2018-02-27T10:56:56.217Z,61.00
2018-02-27T10:59:23.711Z,59.60
2018-02-27T11:01:55.872Z,58.30
2018-02-27T11:04:23.372Z,59.00
2018-02-27T11:06:50.847Z,58.20
2018-02-27T11:09:18.340Z,56.50
2018-02-27T11:11:48.649Z,57.50
2018-02-27T11:14:16.143Z,56.40
2018-02-27T11:16:43.653Z,58.10
2018-02-27T11:19:11.143Z,56.80
2018-02-27T11:21:38.621Z,56.70
2018-02-27T11:24:06.875Z,56.90
2018-02-27T11:26:34.358Z,56.60
2018-02-27T11:29:01.850Z,54.40
2018-02-27T11:31:29.387Z,56.60
2018-02-27T11:33:56.900Z,55.90
2018-02-27T11:36:24.382Z,58.10
2018-02-27T11:38:51.902Z,57.50
2018-02-27T11:41:19.403Z,59.70
2018-02-27T11:43:47.644Z,54.60
2018-02-27T11:46:15.162Z,54.40
2018-02-27T11:48:42.649Z,54.60
2018-02-27T11:51:10.153Z,54.00
2018-02-27T11:53:38.403Z,52.20
2018-02-27T11:56:05.887Z,52.10
2018-02-27T11:58:33.385Z,52.30
2018-02-27T12:01:00.854Z,55.70
2018-02-27T12:03:28.347Z,56.10
2018-02-27T12:05:55.822Z,55.50
2018-02-27T12:08:23.317Z,57.10
2018-02-27T12:10:50.829Z,56.20
2018-02-27T12:13:19.083Z,58.20
2018-02-27T12:15:46.566Z,58.00
2018-02-27T12:18:14.069Z,57.80
2018-02-27T12:20:41.594Z,55.70
2018-02-27T12:23:09.105Z,55.40
2018-02-27T12:25:36.629Z,55.70
2018-02-27T12:28:04.104Z,55.80
2018-02-27T12:30:32.357Z,55.00
2018-02-27T12:32:59.856Z,55.10
2018-02-27T12:35:27.367Z,52.50
2018-02-27T12:37:54.837Z,53.80
2018-02-27T12:40:22.332Z,53.80
2018-02-27T12:42:49.827Z,52.80
2018-02-27T12:45:17.316Z,52.60
2018-02-27T12:47:44.795Z,53.80
2018-02-27T12:50:13.645Z,48.20
2018-02-27T12:52:41.135Z,49.20
2018-02-27T12:55:08.626Z,49.50
2018-02-27T12:57:36.139Z,51.90
2018-02-27T13:00:03.618Z,51.70
2018-02-27T13:02:31.125Z,52.40
2018-02-27T13:04:58.920Z,49.60
2018-02-27T13:07:26.408Z,54.30
2018-02-27T13:09:53.899Z,54.10
2018-02-27T13:12:21.376Z,53.50
2018-02-27T13:14:48.932Z,52.00
2018-02-27T13:17:16.461Z,51.70
2018-02-27T13:19:44.716Z,51.30
2018-02-27T13:22:13.072Z,52.50
2018-02-27T13:24:40.568Z,52.10
2018-02-27T13:27:08.055Z,51.70
2018-02-27T13:29:35.562Z,49.60
2018-02-27T13:32:03.061Z,49.90
2018-02-27T13:34:30.575Z,50.30
2018-02-27T13:36:58.070Z,49.40
2018-02-27T13:39:25.576Z,46.90
2018-02-27T13:41:53.097Z,48.10
2018-02-27T13:44:21.563Z,48.30
2018-02-27T13:46:49.060Z,48.20
2018-02-27T13:49:16.555Z,47.10
2018-02-27T13:51:44.051Z,47.80
2018-02-27T13:54:11.576Z,49.20
2018-02-27T13:56:39.857Z,47.90
2018-02-27T13:59:08.134Z,46.50
2018-02-27T14:01:35.677Z,46.40
2018-02-27T14:04:03.788Z,42.80
2018-02-27T14:06:31.303Z,44.60
2018-02-27T14:09:01.388Z,44.50
2018-02-27T14:11:29.201Z,43.10
2018-02-27T14:13:56.704Z,43.30
2018-02-27T14:16:24.188Z,43.80
2018-02-27T14:18:52.686Z,42.70
2018-02-27T14:21:20.973Z,42.80
2018-02-27T14:23:49.518Z,42.20
2018-02-27T14:26:17.013Z,42.00
2018-02-27T14:28:44.906Z,39.50
2018-02-27T14:31:12.387Z,39.90
2018-02-27T14:33:39.888Z,39.30
2018-02-27T14:36:08.394Z,40.60
2018-02-27T14:38:35.892Z,40.40
2018-02-27T14:41:03.648Z,41.00
2018-02-27T14:43:31.156Z,42.40
2018-02-27T14:45:59.418Z,41.80
2018-02-27T14:48:26.919Z,40.20
2018-02-27T14:50:54.410Z,40.10
2018-02-27T14:53:21.891Z,40.50
2018-02-27T14:55:49.433Z,38.70
2018-02-27T14:58:16.963Z,40.00
2018-02-27T15:00:44.484Z,40.90
2018-02-27T15:03:11.992Z,42.20
2018-02-27T15:05:39.486Z,41.40
2018-02-27T15:08:07.735Z,41.80
2018-02-27T15:10:35.231Z,41.10
2018-02-27T15:13:03.479Z,39.60
2018-02-27T15:15:31.050Z,39.40
2018-02-27T15:17:58.459Z,39.40
2018-02-27T15:20:25.948Z,37.90
2018-02-27T15:22:53.787Z,38.30
2018-02-27T15:25:21.275Z,37.20
2018-02-27T15:27:48.762Z,36.80
2018-02-27T15:30:16.241Z,36.70
2018-02-27T15:32:43.748Z,38.40
2018-02-27T15:35:11.260Z,37.90
2018-02-27T15:37:38.740Z,38.10
2018-02-27T15:40:06.245Z,37.10
2018-02-27T15:42:33.719Z,37.10
2018-02-27T15:45:01.225Z,36.00
2018-02-27T15:47:28.737Z,35.40
2018-02-27T15:49:56.281Z,36.60
2018-02-27T15:52:23.721Z,37.50
2018-02-27T15:54:52.032Z,37.40
2018-02-27T15:57:19.455Z,37.20
2018-02-27T15:59:47.721Z,42.30
2018-02-27T16:02:15.182Z,42.10
2018-02-27T16:04:43.436Z,45.90
2018-02-27T16:07:10.924Z,45.50
2018-02-27T16:09:39.190Z,47.50
2018-02-27T16:12:06.689Z,47.40
2018-02-27T16:14:34.175Z,48.20
2018-02-27T16:17:01.665Z,48.60
2018-02-27T16:19:29.190Z,49.20
2018-02-27T16:21:56.683Z,50.40
2018-02-27T16:24:24.182Z,50.40
2018-02-27T16:26:51.675Z,50.50
2018-02-27T16:29:19.150Z,49.50
2018-02-27T16:31:46.639Z,49.80
2018-02-27T16:34:14.131Z,50.20
2018-02-27T16:36:41.619Z,51.20
2018-02-27T16:39:09.115Z,51.30
2018-02-27T16:41:36.604Z,51.10
2018-02-27T16:44:04.072Z,51.10
2018-02-27T16:46:31.550Z,51.50
2018-02-27T16:48:59.036Z,51.10
2018-02-27T16:51:27.309Z,51.60
2018-02-27T16:53:55.564Z,51.20
2018-02-27T16:56:23.067Z,51.00
2018-02-27T16:58:50.555Z,50.70
2018-02-27T17:01:18.815Z,50.90
2018-02-27T17:03:46.292Z,51.20
2018-02-27T17:06:13.794Z,52.00
2018-02-27T17:11:15.081Z,51.80
2018-02-27T17:13:42.567Z,51.20
2018-02-27T17:16:10.041Z,48.90
2018-02-27T17:18:37.525Z,48.10
2018-02-27T17:21:05.035Z,47.50
2018-02-27T17:23:32.939Z,46.60
2018-02-27T17:26:01.222Z,47.40
2018-02-27T17:28:28.692Z,46.70
2018-02-27T17:30:56.995Z,47.00
2018-02-27T17:33:24.469Z,46.40
2018-02-27T17:35:51.972Z,46.90
2018-02-27T17:38:19.480Z,46.60
2018-02-27T17:40:47.020Z,46.60
2018-02-27T17:43:14.521Z,47.10
2018-02-27T17:45:41.996Z,46.60
2018-02-27T17:48:09.486Z,46.70
2018-02-27T17:50:36.973Z,46.80
2018-02-27T17:53:04.460Z,46.90
2018-02-27T17:55:32.723Z,47.40
2018-02-27T17:58:00.292Z,47.40
2018-02-27T18:00:27.753Z,47.60
2018-02-27T18:02:56.024Z,48.20
2018-02-27T18:05:24.258Z,48.20
2018-02-27T18:07:51.756Z,48.00
2018-02-27T18:10:19.220Z,47.60
2018-02-27T18:12:47.484Z,48.70
2018-02-27T18:15:14.966Z,48.30
2018-02-27T18:17:42.488Z,48.70
2018-02-27T18:20:09.976Z,49.00
2018-02-27T18:22:37.511Z,49.30
2018-02-27T18:25:05.006Z,49.90
2018-02-27T18:27:32.500Z,50.50
2018-02-27T18:29:59.984Z,50.50
2018-02-27T18:32:27.454Z,50.70
2018-02-27T18:34:54.979Z,50.80
2018-02-27T18:37:22.442Z,51.30
2018-02-27T18:39:49.918Z,51.00
2018-02-27T18:42:17.400Z,51.70
2018-02-27T18:44:44.901Z,51.50
2018-02-27T18:47:12.372Z,51.90
2018-02-27T18:49:39.865Z,52.30
2018-02-27T18:52:08.121Z,53.00
2018-02-27T18:54:35.608Z,52.50
2018-02-27T18:57:03.097Z,52.80
2018-02-27T18:59:30.572Z,53.40
2018-02-27T19:01:58.070Z,53.60
2018-02-27T19:04:25.568Z,54.00
2018-02-27T19:06:53.057Z,54.00
2018-02-27T19:09:20.570Z,54.30
2018-02-27T19:11:48.055Z,54.50
2018-02-27T19:14:15.535Z,54.40
2018-02-27T19:16:43.026Z,55.20
2018-02-27T19:19:11.334Z,55.30
2018-02-27T19:21:38.825Z,55.30
2018-02-27T19:24:06.332Z,55.10
2018-02-27T19:26:33.810Z,55.50
2018-02-27T19:29:01.301Z,55.60
2018-02-27T19:31:28.772Z,56.20
2018-02-27T19:33:57.016Z,56.30
2018-02-27T19:36:24.486Z,56.00
2018-02-27T19:38:51.979Z,56.50
2018-02-27T19:41:19.483Z,56.60
2018-02-27T19:43:46.982Z,56.80
2018-02-27T19:46:15.227Z,57.10
2018-02-27T19:48:42.734Z,57.20
2018-02-27T19:51:10.212Z,57.60
2018-02-27T19:53:38.009Z,57.50
2018-02-27T19:56:05.481Z,57.40
2018-02-27T19:58:33.760Z,58.20
2018-02-27T20:01:01.223Z,57.60
2018-02-27T20:03:28.726Z,58.30
2018-02-27T20:05:56.212Z,58.20
2018-02-27T20:08:23.706Z,58.30
2018-02-27T20:10:51.340Z,58.50
2018-02-27T20:13:18.858Z,58.70
2018-02-27T20:15:46.333Z,58.70
2018-02-27T20:18:13.820Z,58.90
2018-02-27T20:20:41.294Z,58.80
2018-02-27T20:23:14.355Z,59.00
2018-02-27T20:25:41.826Z,58.60
2018-02-27T20:28:25.745Z,59.70
2018-02-27T20:30:53.251Z,59.30
2018-02-27T20:33:20.734Z,59.60
2018-02-27T20:35:48.240Z,59.90
2018-02-27T20:38:15.710Z,60.10
2018-02-27T20:40:43.991Z,60.80
2018-02-27T20:43:18.286Z,60.80
2018-02-27T20:45:46.603Z,61.30
2018-02-27T20:48:14.128Z,60.70
2018-02-27T20:50:41.654Z,61.00
2018-02-27T20:53:09.178Z,61.40
2018-02-27T20:55:37.064Z,61.40
2018-02-27T20:58:04.536Z,61.50
2018-02-27T21:00:32.029Z,61.80
2018-02-27T21:02:59.498Z,61.50
2018-02-27T21:05:27.075Z,61.70
2018-02-27T21:07:54.558Z,62.30
2018-02-27T21:10:22.049Z,61.70
2018-02-27T21:12:49.546Z,62.50
2018-02-27T21:15:17.048Z,62.10
2018-02-27T21:17:45.958Z,62.80
2018-02-27T21:20:13.694Z,63.20
2018-02-27T21:22:41.249Z,63.10
2018-02-27T21:25:08.728Z,63.40
2018-02-27T21:27:36.230Z,63.10
2018-02-27T21:30:03.719Z,63.30
2018-02-27T21:32:31.198Z,63.60
2018-02-27T21:34:58.691Z,63.50
2018-02-27T21:37:26.147Z,64.00
2018-02-27T21:39:54.720Z,64.70
2018-02-27T21:42:22.958Z,64.60
2018-02-27T21:44:50.519Z,64.60
2018-02-27T21:47:18.005Z,64.30
2018-02-27T21:49:45.479Z,64.80
2018-02-27T21:52:12.969Z,64.90
2018-02-27T21:54:40.446Z,64.40
2018-02-27T21:57:07.920Z,65.00
2018-02-27T21:59:35.410Z,64.70
2018-02-27T22:02:02.877Z,65.50
2018-02-27T22:04:31.246Z,65.40
2018-02-27T22:06:58.724Z,65.50
2018-02-27T22:09:26.201Z,65.50
2018-02-27T22:11:53.690Z,65.70
2018-02-27T22:14:21.939Z,66.00
2018-02-27T22:16:49.429Z,65.80
2018-02-27T22:19:17.665Z,66.70
2018-02-27T22:21:45.179Z,66.70
2018-02-27T22:24:12.631Z,66.80
2018-02-27T22:26:40.094Z,66.90
2018-02-27T22:29:07.596Z,67.10
2018-02-27T22:31:35.105Z,67.70
2018-02-27T22:34:02.555Z,68.20
2018-02-27T22:36:30.055Z,68.50
2018-02-27T22:38:57.538Z,69.30
2018-02-27T22:41:25.000Z,68.80
2018-02-27T22:43:52.491Z,68.80
2018-02-27T22:46:19.988Z,69.00
2018-02-27T22:48:48.855Z,68.90
2018-02-27T22:51:16.333Z,68.90
2018-02-27T22:53:43.827Z,69.00
2018-02-27T22:56:11.292Z,69.10
2018-02-27T22:58:39.528Z,69.10
2018-02-27T23:01:07.030Z,69.30
2018-02-27T23:03:34.701Z,69.10
2018-02-27T23:06:04.418Z,69.50
2018-02-27T23:08:34.186Z,69.30
2018-02-27T23:11:13.273Z,69.30
2018-02-27T23:13:40.732Z,69.40
2018-02-27T23:16:08.198Z,69.40
2018-02-27T23:18:35.690Z,69.90
2018-02-27T23:21:03.175Z,69.90
2018-02-27T23:23:30.656Z,69.90
2018-02-27T23:26:15.315Z,70.00
2018-02-27T23:28:44.540Z,70.20
2018-02-27T23:31:12.455Z,69.60
2018-02-27T23:33:44.189Z,70.00
2018-02-27T23:36:11.671Z,70.10
2018-02-27T23:38:39.156Z,70.20
2018-02-27T23:41:06.650Z,70.50
2018-02-27T23:43:34.122Z,70.50
2018-02-27T23:46:01.592Z,70.60
2018-02-27T23:48:29.068Z,70.80
2018-02-27T23:50:56.618Z,71.20
2018-02-27T23:53:24.132Z,71.20
2018-02-27T23:55:52.470Z,70.90
2018-02-27T23:58:19.952Z,71.20
